Latest Weather Observations for Yulara

IDD60801

Issued at 7:05 am CST Thursday 23 October 2014 (issued every 30 minutes, with the page automatically refreshed every 10 minutes)

About weather observations | Map of weather stations | Latest weather observations for NT | Other Formats
Station Details ID: 015635 Name: YULARA AIRPORT Lat: -25.19 Lon: 130.97 Height: 492.0 m
Data from the previous 72 hours. | See also: Recent months at Yulara
Date/Time
CST
Temp
°C
App
Temp
°C
Dew
Point
Rel
Hum
%
Delta-T
°C
Wind Press
QNH
hPa
Press
MSL
hPa
Rain
since 9 am
mm
Dir
 
Spd
km/h
Gust
km/h
Spd
kts
Gust
kts
23/07:00am 23.2 19.6 0.9 23 10.5 E 9 13 5 7 1017.0 1014.5 0.0
23/06:30am 19.3 17.0 0.4 28 8.6 SE 2 7 1 4 1016.6 1014.1 0.0
23/06:00am 21.5 18.4 1.2 26 9.5 S 7 11 4 6 1016.4 1013.9 0.0
23/05:30am 22.4 18.8 0.3 23 10.3 E 9 13 5 7 1015.9 1013.4 0.0
23/05:00am 22.3 18.7 0.8 24 10.1 SE 9 11 5 6 1015.9 1013.4 0.0
23/04:30am 22.5 18.9 0.4 23 10.3 SSE 9 11 5 6 1015.5 1013.0 0.0
23/04:00am 23.0 19.0 0.2 22 10.6 SSE 11 13 6 7 1015.3 1012.8 0.0
23/03:30am 24.3 20.2 -0.1 20 11.4 SE 11 13 6 7 1015.3 1012.8 0.0
23/03:00am 24.4 19.9 0.0 20 11.5 SE 13 15 7 8 1015.3 1012.8 0.0
23/02:30am 25.3 21.2 0.0 19 12.0 SE 11 15 6 8 1015.5 1013.0 0.0
23/02:00am 26.4 21.1 -0.6 17 12.7 SE 17 20 9 11 1015.6 1013.1 0.0
23/01:30am 27.2 21.5 -0.8 16 13.2 SE 19 22 10 12 1016.0 1013.5 0.0
23/01:00am 27.5 21.8 -0.5 16 13.3 SE 19 26 10 14 1016.2 1013.7 0.0
23/12:30am 28.2 24.0 -0.9 15 13.8 SE 11 19 6 10 1016.4 1013.9 0.0
23/12:00am 29.6 24.5 -1.7 13 14.8 SSE 15 19 8 10 1016.4 1013.9 0.0
 
Date/Time
CST
Temp
°C
App
Temp
°C
Dew
Point
Rel
Hum
%
Delta-T
°C
Wind Press
QNH
hPa
Press
MSL
hPa
Rain
since 9 am
mm
Dir
 
Spd
km/h
Gust
km/h
Spd
kts
Gust
kts
22/11:30pm 30.4 25.1 -3.3 11 15.6 SSE 15 26 8 14 1016.1 1013.6 0.0
22/11:00pm 25.7 22.8 -3.8 14 13.0 ESE 2 9 1 5 1016.0 1013.5 0.0
22/10:30pm 29.3 25.4 -4.2 11 15.1 E 7 11 4 6 1016.0 1013.5 0.0
22/10:00pm 30.9 26.7 -4.2 10 16.1 E 9 13 5 7 1015.9 1013.4 0.0
22/09:30pm 31.0 26.8 -4.1 10 16.1 E 9 11 5 6 1015.8 1013.3 0.0
22/09:00pm 32.1 27.4 -4.7 9 16.8 E 11 15 6 8 1015.7 1013.2 0.0
22/08:30pm 32.9 28.7 -4.1 9 17.2 E 9 11 5 6 1015.4 1012.9 0.0
22/08:00pm 33.8 29.5 -5.0 8 17.9 E 9 11 5 6 1015.3 1012.8 0.0
22/07:30pm 35.1 30.5 -4.1 8 18.5 E 11 15 6 8 1015.0 1012.4 0.0
22/07:00pm 35.8 31.6 -3.5 8 18.9 E 9 11 5 6 1014.7 1012.1 0.0
22/06:30pm 37.1 32.8 -4.4 7 19.8 E 9 13 5 7 1014.3 1011.8 0.0
22/06:00pm 37.7 34.1 -3.9 7 20.1 SE 6 13 3 7 1014.1 1011.6 0.0
22/05:30pm 38.2 34.0 -3.6 7 20.3 ESE 9 17 5 9 1013.9 1011.4 0.0
22/05:00pm 39.5 35.8 -2.6 7 21.0 SSW 7 19 4 10 1013.8 1011.3 0.0
22/04:30pm 38.6 34.9 -3.3 7 20.5 N 7 15 4 8 1014.0 1011.5 0.0
22/04:00pm 38.8 35.1 -3.2 7 20.7 SE 7 17 4 9 1014.2 1011.7 0.0
22/03:30pm 39.1 34.3 -2.9 7 20.8 SE 13 22 7 12 1014.3 1011.8 0.0
22/03:00pm 39.0 34.5 -3.0 7 20.7 S 11 20 6 11 1014.7 1012.1 0.0
22/02:30pm 38.1 32.8 -3.7 7 20.3 ESE 15 20 8 11 1015.2 1012.7 0.0
22/02:00pm 38.4 34.4 -5.5 6 20.8 NW 7 24 4 13 1015.6 1013.1 0.0
22/01:30pm 38.2 31.9 -5.6 6 20.7 N 19 26 10 14 1016.3 1013.8 0.0
22/01:00pm 37.3 33.1 -4.2 7 19.9 N 9 22 5 12 1016.9 1014.4 0.0
22/12:44pm 37.4 33.2 -4.2 7 20.0 N 9 22 5 12 1017.2 1014.7 0.0
22/12:30pm 37.3 31.2 -4.2 7 19.9 N 19 32 10 17 1017.4 1014.9 0.0
22/12:26pm 37.6 30.9 -4.0 7 20.0 N 22 32 12 17 1017.4 1014.9 0.0
22/12:00pm 36.2 30.7 -5.0 7 19.3 NE 15 22 8 12 1017.8 1015.3 0.0
22/11:30am 35.3 30.3 -3.9 8 18.6 N 13 19 7 10 1018.2 1015.7 0.0
22/11:00am 34.4 29.9 -3.0 9 17.9 NNE 11 24 6 13 1018.6 1016.2 0.0
22/10:30am 34.7 29.9 -2.8 9 18.0 ENE 13 22 7 12 1019.0 1016.5 0.0
22/10:00am 33.4 28.0 -1.0 11 16.9 E 17 24 9 13 1019.2 1016.7 0.0
22/09:30am 32.2 27.2 1.3 14 15.6 ESE 17 24 9 13 1019.2 1016.7 0.0
22/09:00am 30.4 24.9 1.8 16 14.4 ESE 20 28 11 15 1019.2 1016.7 0.0
22/08:30am 28.6 23.4 2.7 19 13.1 ESE 19 28 10 15 1019.1 1016.6 0.0
22/08:00am 27.1 23.1 2.9 21 12.2 SE 13 30 7 16 1019.0 1016.5 0.0
22/07:46am 26.0 18.6 2.0 21 11.8 SE 30 48 16 26 1018.8 1016.4 0.0
22/07:30am 25.3 20.4 2.1 22 11.4 SSE 17 37 9 20 1018.6 1016.2 0.0
22/07:00am 23.0 20.0 0.8 23 10.5 SSE 6 11 3 6 1018.4 1015.9 0.0
22/06:30am 22.2 18.2 0.7 24 10.0 SE 11 17 6 9 1018.0 1015.5 0.0
22/06:00am 22.6 18.6 0.4 23 10.3 SSE 11 15 6 8 1017.6 1015.1 0.0
22/05:30am 24.0 19.9 -0.3 20 11.3 SSE 11 17 6 9 1017.2 1014.7 0.0
22/05:00am 25.7 20.4 -0.4 18 12.3 SSE 17 24 9 13 1016.6 1014.1 0.0
22/04:30am 26.4 20.8 0.2 18 12.5 SSE 19 30 10 16 1016.3 1013.8 0.0
22/04:00am 27.5 20.9 -0.5 16 13.3 SSE 24 35 13 19 1015.9 1013.4 0.0
22/03:30am 25.3 20.5 0.0 19 12.0 S 15 20 8 11 1015.8 1013.3 0.0
22/03:00am 28.7 23.0 0.4 16 13.8 SSE 20 32 11 17 1015.8 1013.3 0.0
22/02:30am 25.3 20.2 0.7 20 11.8 S 17 19 9 10 1015.9 1013.4 0.0
22/02:00am 26.8 22.2 1.3 19 12.5 S 15 19 8 10 1016.2 1013.7 0.0
22/01:30am 27.7 23.0 1.2 18 13.0 S 15 19 8 10 1016.5 1014.0 0.0
22/01:00am 26.4 22.1 0.9 19 12.4 S 13 17 7 9 1016.8 1014.2 0.0
22/12:30am 27.6 23.3 1.2 18 12.9 SSW 13 19 7 10 1017.1 1014.6 0.0
22/12:00am 28.5 24.6 1.1 17 13.5 SSE 11 15 6 8 1017.4 1014.9 0.0
 
Date/Time
CST
Temp
°C
App
Temp
°C
Dew
Point
Rel
Hum
%
Delta-T
°C
Wind Press
QNH
hPa
Press
MSL
hPa
Rain
since 9 am
mm
Dir
 
Spd
km/h
Gust
km/h
Spd
kts
Gust
kts
21/11:30pm 26.9 23.0 1.3 19 12.5 S 11 13 6 7 1017.5 1015.0 0.0
21/11:00pm 26.2 22.7 -1.6 16 12.9 SSW 7 9 4 5 1017.7 1015.2 0.0
21/10:30pm 28.0 23.1 -3.0 13 14.1 SSW 13 19 7 10 1017.9 1015.4 0.0
21/10:00pm 28.9 23.6 -3.3 12 14.7 S 15 24 8 13 1017.9 1015.4 0.0
21/09:30pm 24.4 22.0 -3.0 16 12.1 CALM 0 0 0 0 1017.5 1015.0 0.0
21/09:00pm 25.3 22.9 -3.2 15 12.7 CALM 0 0 0 0 1017.3 1014.8 0.0
21/08:30pm 26.3 23.9 -3.3 14 13.3 CALM 0 0 0 0 1017.0 1014.5 0.0
21/08:00pm 27.9 25.5 -3.0 13 14.1 CALM 0 0 0 0 1016.6 1014.1 0.0
21/07:30pm 30.0 27.5 -3.6 11 15.4 CALM 0 0 0 0 1016.2 1013.7 0.0
21/07:00pm 33.1 28.9 -4.0 9 17.3 NW 9 9 5 5 1015.9 1013.4 0.0
21/06:30pm 35.6 31.4 -3.7 8 18.8 NNW 9 13 5 7 1015.6 1013.1 0.0
21/06:00pm 37.3 32.3 -4.2 7 19.9 WNW 13 20 7 11 1015.4 1012.9 0.0
21/05:30pm 37.7 34.5 -3.9 7 20.1 W 4 15 2 8 1015.2 1012.7 0.0
21/05:00pm 38.1 32.4 -3.7 7 20.3 WSW 17 26 9 14 1015.2 1012.7 0.0
21/04:30pm 38.5 33.2 -3.4 7 20.5 NNW 15 30 8 16 1015.2 1012.7 0.0
21/04:00pm 38.2 34.8 -5.6 6 20.7 W 4 15 2 8 1015.3 1012.8 0.0
21/03:30pm 39.0 32.8 -3.0 7 20.7 NNW 20 26 11 14 1015.5 1013.0 0.0
21/03:00pm 38.4 31.8 -3.4 7 20.4 W 22 41 12 22 1015.8 1013.3 0.0
21/02:30pm 38.6 33.7 -3.3 7 20.5 WNW 13 24 7 13 1015.9 1013.4 0.0
21/02:00pm 38.1 32.4 -3.7 7 20.3 NW 17 30 9 16 1016.4 1013.9 0.0
21/01:30pm 38.0 30.6 -3.7 7 20.2 WNW 26 32 14 17 1017.0 1014.5 0.0
21/01:00pm 37.7 31.2 -2.2 8 19.8 NW 22 39 12 21 1017.5 1015.0 0.0
21/12:30pm 37.1 31.0 -2.6 8 19.5 NNW 20 33 11 18 1018.0 1015.5 0.0
21/12:00pm 36.8 30.1 -1.2 9 19.0 NW 24 39 13 21 1018.3 1015.8 0.0
21/11:30am 35.8 29.7 -2.0 9 18.5 NNW 20 30 11 16 1018.7 1016.3 0.0
21/11:00am 35.5 29.0 -2.2 9 18.4 NNW 22 35 12 19 1019.0 1016.5 0.0
21/10:30am 35.3 28.1 -2.3 9 18.3 NNW 26 33 14 18 1019.2 1016.7 0.0
21/10:00am 34.3 26.6 -3.1 9 17.9 NNW 28 39 15 21 1019.2 1016.7 0.0
21/09:30am 34.0 26.6 -3.3 9 17.7 N 26 35 14 19 1019.0 1016.5 0.0
21/09:00am 32.8 25.0 -4.2 9 17.1 N 28 41 15 22 1018.7 1016.3 0.0
21/08:30am 31.2 24.4 -5.4 9 16.4 N 22 30 12 16 1018.6 1016.2 0.0
21/08:00am 28.3 22.0 -6.2 10 14.9 NNE 19 22 10 12 1018.4 1015.9 0.0
21/07:30am 26.2 20.2 -6.5 11 13.8 NE 17 20 9 11 1018.2 1015.7 0.0
21/07:28am 25.8 19.8 -6.9 11 13.7 NE 17 19 9 10 1018.2 1015.7 0.0
21/07:00am 20.7 16.1 -7.7 14 11.1 E 9 11 5 6 1018.0 1015.5 0.0
21/06:30am 16.4 11.7 -8.7 17 9.2 WSW 9 15 5 8 1017.9 1015.4 0.0
21/06:00am 15.4 12.4 -9.5 17 8.8 CALM 0 7 0 4 1017.4 1014.9 0.0
21/05:30am 17.4 10.8 -8.6 16 9.6 SW 19 24 10 13 1016.9 1014.4 0.0
21/05:00am 18.4 14.2 -9.5 14 10.3 E 6 9 3 5 1015.8 1013.3 0.0
21/04:30am 19.4 16.1 -8.7 14 10.6 ESE 2 7 1 4 1015.5 1013.0 0.0
21/04:00am 19.0 15.6 -9.1 14 10.5 E 2 7 1 4 1015.3 1012.8 0.0
21/03:30am 19.7 15.9 -9.5 13 10.9 SE 4 11 2 6 1015.3 1012.8 0.0
21/03:00am 22.4 16.9 -9.5 11 12.3 ESE 13 19 7 10 1015.2 1012.7 0.0
21/02:30am 21.7 17.9 -10.0 11 12.0 N 4 6 2 3 1015.1 1012.6 0.0
21/02:00am 21.8 17.0 -11.1 10 12.2 WNW 9 13 5 7 1015.4 1012.9 0.0
21/01:30am 20.5 16.3 -9.8 12 11.4 WNW 6 24 3 13 1015.9 1013.4 0.0
21/01:00am 19.5 16.5 -8.7 14 10.7 CALM 0 7 0 4 1015.9 1013.4 0.0
21/12:30am 19.6 16.6 -9.5 13 10.9 CALM 0 0 0 0 1015.9 1013.4 0.0
21/12:00am 20.8 17.8 -9.6 12 11.5 CALM 0 4 0 2 1016.1 1013.6 0.0
 
Date/Time
CST
Temp
°C
App
Temp
°C
Dew
Point
Rel
Hum
%
Delta-T
°C
Wind Press
QNH
hPa
Press
MSL
hPa
Rain
since 9 am
mm
Dir
 
Spd
km/h
Gust
km/h
Spd
kts
Gust
kts
20/11:30pm 21.1 18.0 -10.5 11 11.8 CALM 0 0 0 0 1016.4 1013.9 0.0
20/11:00pm 20.5 17.5 -9.8 12 11.4 CALM 0 0 0 0 1016.6 1014.1 0.0
20/10:30pm 20.7 17.6 -10.8 11 11.6 CALM 0 0 0 0 1016.6 1014.1 0.0
20/10:00pm 20.8 17.7 -10.7 11 11.6 CALM 0 0 0 0 1016.8 1014.2 0.0
20/09:30pm 21.9 18.7 -12.4 9 12.4 CALM 0 0 0 0 1016.6 1014.1 0.0
20/09:00pm 22.8 19.6 -11.7 9 12.8 CALM 0 6 0 3 1016.5 1014.0 0.0
20/08:30pm 24.8 20.3 -11.7 8 13.8 NNE 7 9 4 5 1016.2 1013.7 0.0
20/08:00pm 25.5 21.1 -12.8 7 14.3 NE 6 7 3 4 1016.0 1013.5 0.0
20/07:30pm 30.0 25.7 -11.4 6 16.6 NNE 6 9 3 5 1015.6 1013.1 0.0
20/07:00pm 33.3 28.4 -11.4 5 18.5 N 9 11 5 6 1015.3 1012.8 0.0
20/06:30pm 35.4 30.1 -12.7 4 19.9 N 11 19 6 10 1015.0 1012.4 0.0
20/06:00pm 36.5 30.5 -12.0 4 20.4 N 15 24 8 13 1014.5 1012.0 0.0
20/05:30pm 36.8 30.2 -15.3 3 20.9 NNE 17 26 9 14 1014.3 1011.8 0.0
20/05:00pm 37.3 31.5 -14.9 3 21.2 NE 13 26 7 14 1014.2 1011.7 0.0
20/04:30pm 38.1 31.2 -14.4 3 21.6 NNW 19 26 10 14 1014.2 1011.7 0.0
20/04:00pm 37.9 30.8 -14.6 3 21.5 N 20 30 11 16 1014.4 1011.9 0.0
20/03:30pm 38.0 30.5 -14.5 3 21.6 NW 22 28 12 15 1014.5 1012.0 0.0
20/03:00pm 37.8 30.8 -14.6 3 21.5 NNW 19 28 10 15 1014.8 1012.2 0.0
20/02:30pm 37.5 30.5 -14.8 3 21.3 NNW 19 30 10 16 1015.1 1012.6 0.0
20/02:00pm 36.8 29.1 -11.8 4 20.6 N 24 35 13 19 1015.5 1013.0 0.0
20/01:30pm 38.1 30.8 -10.9 4 21.3 NE 22 33 12 18 1015.9 1013.4 0.0
20/01:00pm 37.2 30.2 -11.5 4 20.8 NNW 20 33 11 18 1016.4 1013.9 0.0
20/12:30pm 36.8 31.1 -11.8 4 20.6 NNE 13 39 7 21 1017.0 1014.5 0.0
20/12:00pm 36.6 28.5 -11.9 4 20.5 NNE 26 52 14 28 1017.3 1014.8 0.0
20/11:30am 36.1 29.7 -12.2 4 20.2 N 17 26 9 14 1017.8 1015.3 0.0
20/11:00am 35.5 29.6 -9.9 5 19.6 N 15 26 8 14 1018.3 1015.8 0.0
20/10:30am 34.5 29.3 -10.6 5 19.1 N 11 19 6 10 1018.7 1016.3 0.0
20/10:00am 32.3 26.6 -12.1 5 18.0 NNE 13 19 7 10 1019.1 1016.6 0.0
20/09:30am 30.9 25.2 -13.1 5 17.3 NE 13 19 7 10 1019.2 1016.7 0.0
20/09:00am 29.1 23.7 -14.3 5 16.4 ENE 11 15 6 8 1019.1 1016.6 0.0
20/08:30am 27.3 21.6 -13.4 6 15.3 E 13 17 7 9 1019.1 1016.6 0.0
20/08:00am 24.6 18.9 -13.4 7 13.9 E 13 17 7 9 1018.8 1016.4 0.0
20/07:30am 21.7 15.9 -14.0 8 12.5 ESE 13 17 7 9 1018.4 1015.9 0.0

Other Formats:

Comma delimited format used in spreadsheet applications
http://www.bom.gov.au/fwo/IDD60801/IDD60801.94462.axf

JavaScript Object Notation format (JSON) in row-major order
http://www.bom.gov.au/fwo/IDD60801/IDD60801.94462.json